Hauptseite
METAR-TAF:

METAR-TAF

Flughäfen :

Teheran, Iran

Flughafen Teheran-Mehrabad

Breite: 35-41N, Länge: 051-21E, Höhe: 1204 m

Beobachtung

Neuester Wetterbericht von vor 23 Minuten, um 18:30 UTC
Wind 4 kt aus Nord/Nordwest
Temperatur 31°C
Luftfeuchtigkeit 16%
Luftdruck 1013 hPa
Sichtweite 10 km oder mehr
keine Wolken unter 1500 m und keine Kumulonimbus oder Gewitterwolken

METAR: OIII 211830Z 34004KT CAVOK 31/02 Q1013 A2992 NOSIG

Zeit: 23:23 (18:53 UTC)

Prognose

Neuester Wetterbericht von vor 1 Stunde und 23 Minuten, um 17:30 UTC
Gültige Prognose vom 21 um 18 UTC bis 22 um 24 UTC
Wind 10 kt aus West/Südwest
Sichtweite 10 km oder mehr
keine Wolken unter 1500 m und keine Kumulonimbus oder Gewitterwolken

TAF: OIII 211730Z 2118/2224 24005MPS CAVOK

Wetterbeobachtungen und Prognosen von mehr als 4000 Flughäfen (METAR und TAF Bericht).

Die verfügbaren Stationen werden durch gelbe und rote Markierungen auf der Karte dargestellt.

Führen Sie die Maus auf sie, um den Namen der Station zu sehen.

Darauf klicken, um die Beobachtung von Wetterbeobachtungen und Prognosen zu sehen.

Um die Karte zu ändern : klicken Sie auf den grünen Tasten mit einem schwarzen Kreuz Zum Vergrößern, auf den grünen Button mit einem Gedankenstrich zu verkleinern, oder auf die grünen Pfeile für benachbarte Karten.


METAR-TAF: